createdAt,value
2022-09-28T00:01:44.656Z,1.50
2022-09-28T00:04:12.228Z,1.52
2022-09-28T00:06:39.593Z,1.98
2022-09-28T00:09:06.316Z,1.50
2022-09-28T00:11:33.319Z,1.90
2022-09-28T00:14:03.543Z,1.33
2022-09-28T00:16:33.842Z,1.48
2022-09-28T00:19:00.445Z,1.58
2022-09-28T00:21:31.713Z,1.50
2022-09-28T00:24:12.659Z,1.30
2022-09-28T00:26:44.690Z,1.45
2022-09-28T00:29:24.986Z,1.77
2022-09-28T00:31:53.085Z,1.90
2022-09-28T00:34:20.224Z,1.63
2022-09-28T00:36:47.292Z,1.52
2022-09-28T00:39:15.366Z,1.60
2022-09-28T00:41:42.593Z,1.58
2022-09-28T00:44:27.559Z,1.50
2022-09-28T00:47:15.331Z,1.50
2022-09-28T00:50:05.766Z,1.55
2022-09-28T00:52:35.805Z,1.70
2022-09-28T00:55:04.950Z,2.40
2022-09-28T00:57:32.735Z,1.70
2022-09-28T01:00:00.981Z,1.80
2022-09-28T01:02:27.717Z,1.58
2022-09-28T01:04:59.384Z,1.73
2022-09-28T01:07:26.491Z,1.80
2022-09-28T01:09:54.199Z,1.77
2022-09-28T01:12:20.813Z,2.05
2022-09-28T01:14:47.861Z,2.30
2022-09-28T01:17:16.323Z,1.83
2022-09-28T01:20:13.377Z,1.70
2022-09-28T01:23:01.664Z,1.83
2022-09-28T01:25:41.732Z,2.30
2022-09-28T01:28:14.622Z,4.20
2022-09-28T01:30:56.426Z,5.40
2022-09-28T01:33:26.743Z,7.20
2022-09-28T01:36:12.079Z,6.88
2022-09-28T01:39:00.919Z,5.75
2022-09-28T01:41:30.200Z,4.60
2022-09-28T01:43:57.583Z,2.35
2022-09-28T01:46:28.161Z,2.72
2022-09-28T01:48:58.509Z,2.40
2022-09-28T01:51:43.959Z,2.40
2022-09-28T01:54:18.025Z,2.10
2022-09-28T01:56:54.508Z,1.98
2022-09-28T01:59:30.023Z,1.98
2022-09-28T02:02:04.114Z,2.70
2022-09-28T02:04:36.119Z,3.15
2022-09-28T02:07:13.465Z,3.38
2022-09-28T02:09:47.212Z,3.42
2022-09-28T02:12:20.149Z,2.90
2022-09-28T02:14:49.395Z,3.20
2022-09-28T02:17:16.291Z,3.03
2022-09-28T02:19:43.430Z,3.15
2022-09-28T02:22:29.687Z,2.72
2022-09-28T02:25:01.369Z,3.30
2022-09-28T02:27:35.541Z,2.67
2022-09-28T02:30:03.678Z,3.42
2022-09-28T02:32:32.365Z,4.18
2022-09-28T02:34:59.436Z,4.75
2022-09-28T02:37:27.397Z,4.40
2022-09-28T02:39:53.902Z,5.68
2022-09-28T02:42:25.754Z,6.45
2022-09-28T02:45:22.383Z,6.50
2022-09-28T02:47:58.487Z,4.40
2022-09-28T02:50:40.016Z,3.88
2022-09-28T02:53:14.465Z,4.15
2022-09-28T02:55:59.140Z,4.30
2022-09-28T02:58:55.014Z,4.63
2022-09-28T03:01:33.650Z,4.22
2022-09-28T03:04:12.561Z,4.35
2022-09-28T03:07:01.390Z,4.05
2022-09-28T03:09:56.088Z,4.25
2022-09-28T03:12:23.550Z,4.82
2022-09-28T03:15:06.844Z,4.72
2022-09-28T03:17:33.362Z,4.85
2022-09-28T03:19:59.901Z,5.60
2022-09-28T03:22:26.404Z,5.57
2022-09-28T03:24:52.946Z,5.35
2022-09-28T03:27:19.601Z,4.53
2022-09-28T03:29:46.147Z,4.50
2022-09-28T03:32:12.712Z,4.72
2022-09-28T03:34:42.393Z,4.53
2022-09-28T03:37:08.917Z,5.18
2022-09-28T03:39:35.461Z,5.35
2022-09-28T03:42:01.955Z,5.20
2022-09-28T03:44:31.272Z,6.03
2022-09-28T03:46:57.784Z,5.60
2022-09-28T03:49:24.292Z,6.15
2022-09-28T03:51:50.876Z,5.13
2022-09-28T03:54:17.530Z,4.85
2022-09-28T03:56:44.028Z,4.40
2022-09-28T03:59:10.745Z,5.07
2022-09-28T04:01:38.444Z,4.68
2022-09-28T04:04:04.997Z,4.60
2022-09-28T04:06:31.562Z,3.97
2022-09-28T04:08:58.177Z,3.72
2022-09-28T04:11:26.984Z,3.75
2022-09-28T04:13:53.628Z,4.10
2022-09-28T04:16:20.330Z,3.65
2022-09-28T04:18:48.371Z,4.07
2022-09-28T04:21:16.708Z,4.47
2022-09-28T04:23:44.276Z,4.30
2022-09-28T04:26:20.209Z,3.88
2022-09-28T04:29:06.911Z,4.68
2022-09-28T04:31:42.269Z,5.65
2022-09-28T04:34:09.037Z,6.82
2022-09-28T04:36:35.649Z,6.38
2022-09-28T04:39:02.287Z,6.35
2022-09-28T04:41:28.915Z,6.47
2022-09-28T04:43:55.434Z,5.53
2022-09-28T04:46:22.090Z,4.95
2022-09-28T04:48:48.590Z,5.10
2022-09-28T04:51:15.193Z,4.90
2022-09-28T04:53:41.806Z,4.85
2022-09-28T04:56:11.693Z,4.75
2022-09-28T04:58:41.305Z,4.80
2022-09-28T05:01:11.715Z,4.57
2022-09-28T05:03:39.425Z,4.15
2022-09-28T05:06:08.775Z,4.10
2022-09-28T05:08:35.860Z,4.05
2022-09-28T05:11:07.134Z,4.13
2022-09-28T05:13:40.748Z,3.90
2022-09-28T05:16:08.014Z,4.25
2022-09-28T05:18:39.314Z,4.70
2022-09-28T05:21:13.570Z,6.10
2022-09-28T05:23:40.965Z,6.63
2022-09-28T05:26:07.849Z,5.07
2022-09-28T05:28:35.450Z,3.97
2022-09-28T05:31:03.568Z,3.70
2022-09-28T05:33:31.119Z,3.60
2022-09-28T05:36:01.354Z,3.55
2022-09-28T05:38:28.955Z,3.53
2022-09-28T05:40:56.156Z,4.10
2022-09-28T05:43:22.811Z,3.72
2022-09-28T05:45:53.010Z,3.65
2022-09-28T05:48:22.053Z,3.15
2022-09-28T05:50:52.737Z,2.92
2022-09-28T05:53:19.587Z,3.33
2022-09-28T05:55:46.185Z,3.15
2022-09-28T05:58:12.872Z,3.50
2022-09-28T06:00:39.598Z,3.67
2022-09-28T06:03:09.492Z,3.85
2022-09-28T06:05:36.851Z,4.07
2022-09-28T06:08:08.269Z,3.65
2022-09-28T06:10:34.951Z,4.47
2022-09-28T06:13:02.130Z,4.65
2022-09-28T06:15:30.714Z,4.50
2022-09-28T06:18:00.997Z,4.72
2022-09-28T06:20:29.187Z,4.90
2022-09-28T06:22:56.054Z,4.57
2022-09-28T06:25:23.580Z,4.90
2022-09-28T06:28:01.285Z,4.38
2022-09-28T06:30:29.142Z,3.88
2022-09-28T06:32:57.458Z,3.50
2022-09-28T06:35:25.497Z,3.33
2022-09-28T06:37:52.638Z,3.00
2022-09-28T06:40:20.372Z,3.58
2022-09-28T06:43:01.188Z,3.40
2022-09-28T06:45:28.856Z,3.17
2022-09-28T06:47:57.477Z,3.55
2022-09-28T06:50:28.584Z,3.25
2022-09-28T06:52:55.455Z,3.30
2022-09-28T06:55:22.216Z,3.13
2022-09-28T06:57:59.896Z,2.95
2022-09-28T07:00:27.917Z,3.30
2022-09-28T07:02:54.453Z,3.47
2022-09-28T07:05:26.804Z,3.30
2022-09-28T07:07:58.866Z,4.00
2022-09-28T07:10:28.003Z,3.50
2022-09-28T07:12:55.814Z,3.05
2022-09-28T07:15:22.860Z,3.20
2022-09-28T07:17:59.748Z,3.50
2022-09-28T07:20:29.128Z,3.58
2022-09-28T07:22:58.673Z,3.50
2022-09-28T07:25:32.342Z,3.65
2022-09-28T07:27:59.938Z,3.70
2022-09-28T07:30:28.324Z,3.65
2022-09-28T07:32:55.133Z,3.50
2022-09-28T07:35:22.326Z,3.58
2022-09-28T07:37:48.839Z,3.90
2022-09-28T07:40:34.146Z,3.95
2022-09-28T07:43:07.787Z,4.10
2022-09-28T07:45:36.119Z,4.15
2022-09-28T07:48:03.116Z,4.07
2022-09-28T07:50:30.025Z,4.18
2022-09-28T07:52:57.649Z,4.15
2022-09-28T07:55:24.825Z,3.90
2022-09-28T07:58:01.011Z,4.10
2022-09-28T08:00:33.244Z,4.43
2022-09-28T08:03:03.571Z,3.95
2022-09-28T08:05:32.506Z,5.43
2022-09-28T08:07:59.673Z,4.63
2022-09-28T08:10:30.384Z,4.50
2022-09-28T08:13:00.533Z,5.72
2022-09-28T08:15:35.030Z,6.28
2022-09-28T08:18:02.928Z,5.95
2022-09-28T08:20:51.637Z,5.90
2022-09-28T08:23:18.678Z,5.22
2022-09-28T08:25:52.738Z,5.22
2022-09-28T08:28:20.360Z,5.30
2022-09-28T08:30:47.705Z,4.63
2022-09-28T08:33:15.376Z,4.40
2022-09-28T08:35:42.004Z,4.88
2022-09-28T08:38:09.277Z,4.95
2022-09-28T08:40:50.238Z,5.53
2022-09-28T08:43:45.481Z,4.63
2022-09-28T08:46:14.110Z,4.50
2022-09-28T08:49:25.911Z,4.63
2022-09-28T08:52:05.107Z,4.20
2022-09-28T08:54:48.841Z,4.45
2022-09-28T08:57:21.322Z,3.80
2022-09-28T08:59:56.876Z,4.15
2022-09-28T09:02:33.799Z,4.07
2022-09-28T09:05:04.353Z,3.88
2022-09-28T09:07:46.156Z,3.42
2022-09-28T09:10:36.306Z,3.75
2022-09-28T09:13:21.392Z,3.97
2022-09-28T09:15:57.753Z,3.60
2022-09-28T09:18:37.272Z,3.67
2022-09-28T09:21:39.506Z,3.28
2022-09-28T09:24:27.428Z,3.30
2022-09-28T09:27:13.135Z,2.90
2022-09-28T09:29:55.096Z,3.10
2022-09-28T09:32:49.340Z,3.35
2022-09-28T09:35:53.363Z,3.45
2022-09-28T09:38:43.487Z,3.30
2022-09-28T09:41:43.987Z,3.72
2022-09-28T09:44:23.121Z,3.60
2022-09-28T09:46:59.774Z,3.40
2022-09-28T09:49:34.913Z,3.17
2022-09-28T09:52:10.021Z,3.08
2022-09-28T09:54:44.851Z,3.05
2022-09-28T10:22:56.841Z,3.10
2022-09-28T10:25:24.971Z,3.42
2022-09-28T10:27:52.708Z,3.33
2022-09-28T10:30:28.167Z,2.97
2022-09-28T10:32:59.371Z,2.80
2022-09-28T10:35:28.552Z,2.58
2022-09-28T10:37:59.395Z,2.90
2022-09-28T10:40:38.948Z,3.17
2022-09-28T10:43:28.889Z,2.75
2022-09-28T10:46:13.096Z,3.47
2022-09-28T10:48:45.829Z,4.15
2022-09-28T10:51:12.450Z,2.65
2022-09-28T10:53:40.137Z,3.03
2022-09-28T10:56:28.794Z,2.88
2022-09-28T10:58:56.012Z,2.80
2022-09-28T11:01:33.828Z,2.95
2022-09-28T11:04:14.686Z,2.40
2022-09-28T11:06:44.794Z,2.78
2022-09-28T11:09:40.466Z,2.78
2022-09-28T11:12:15.699Z,3.45
2022-09-28T11:14:53.043Z,2.50
2022-09-28T11:17:43.908Z,2.63
2022-09-28T11:20:28.953Z,2.25
2022-09-28T11:23:30.200Z,2.20
2022-09-28T11:26:08.364Z,1.92
2022-09-28T11:28:46.115Z,2.40
2022-09-28T11:31:19.094Z,2.10
2022-09-28T11:34:18.563Z,2.00
2022-09-28T11:37:18.457Z,2.95
2022-09-28T11:43:44.816Z,2.50
2022-09-28T12:13:05.234Z,4.15
2022-09-28T12:16:11.618Z,3.30
2022-09-28T12:18:54.282Z,2.90
2022-09-28T12:21:33.437Z,2.80
2022-09-28T12:24:23.559Z,2.67
2022-09-28T12:26:56.325Z,2.78
2022-09-28T12:29:36.772Z,3.03
2022-09-28T12:32:37.709Z,3.20
2022-09-28T12:35:12.418Z,2.90
2022-09-28T12:37:53.933Z,2.50
2022-09-28T12:40:32.941Z,2.72
2022-09-28T12:43:33.600Z,2.63
2022-09-28T12:46:34.909Z,3.70
2022-09-28T12:50:33.418Z,4.13
2022-09-28T12:52:39.379Z,6.10
2022-09-28T12:55:56.555Z,5.88
2022-09-28T12:58:44.664Z,4.60
2022-09-28T13:01:23.994Z,3.08
2022-09-28T13:03:59.715Z,3.90
2022-09-28T13:06:44.365Z,3.80
2022-09-28T13:09:22.588Z,3.58
2022-09-28T13:12:00.157Z,3.20
2022-09-28T13:14:43.138Z,4.07
2022-09-28T13:17:26.333Z,3.65
2022-09-28T13:20:32.148Z,4.88
2022-09-28T13:23:20.325Z,3.03
2022-09-28T13:25:53.916Z,3.38
2022-09-28T13:28:26.246Z,2.38
2022-09-28T13:30:55.799Z,2.28
2022-09-28T13:33:43.914Z,2.08
2022-09-28T13:36:28.578Z,2.13
2022-09-28T13:38:56.700Z,2.40
2022-09-28T13:41:28.966Z,2.63
2022-09-28T13:44:10.899Z,2.20
2022-09-28T13:47:08.592Z,2.78
2022-09-28T13:50:09.582Z,2.13
2022-09-28T13:53:15.371Z,2.25
2022-09-28T13:55:49.923Z,2.42
2022-09-28T13:58:30.199Z,2.55
2022-09-28T14:01:19.173Z,2.90
2022-09-28T14:04:25.588Z,3.47
2022-09-28T14:07:16.796Z,3.58
2022-09-28T14:10:06.415Z,2.60
2022-09-28T14:12:32.814Z,2.38
2022-09-28T14:14:59.980Z,2.03
2022-09-28T14:17:29.267Z,1.80
2022-09-28T14:20:09.232Z,2.10
2022-09-28T14:23:10.706Z,3.20
2022-09-28T14:26:12.272Z,2.10
2022-09-28T14:29:09.990Z,2.40
2022-09-28T14:31:41.115Z,2.08
2022-09-28T14:34:24.253Z,2.03
2022-09-28T14:37:23.527Z,1.77
2022-09-28T14:40:09.395Z,2.15
2022-09-28T14:42:36.049Z,2.35
2022-09-28T14:45:06.196Z,2.00
2022-09-28T14:47:43.303Z,2.47
2022-09-28T14:50:29.901Z,2.08
2022-09-28T14:53:14.140Z,1.92
2022-09-28T14:55:50.228Z,1.90
2022-09-28T14:58:36.754Z,2.10
2022-09-28T15:01:06.410Z,2.25
2022-09-28T15:03:35.615Z,1.95
2022-09-28T15:06:02.267Z,2.00
2022-09-28T15:11:06.396Z,2.92
2022-09-28T15:13:33.115Z,2.35
2022-09-28T15:16:00.680Z,2.58
2022-09-28T15:18:49.464Z,2.67
2022-09-28T15:21:16.406Z,2.22
2022-09-28T15:23:44.309Z,2.47
2022-09-28T15:26:21.900Z,3.17
2022-09-28T15:28:48.442Z,2.67
2022-09-28T15:31:30.684Z,2.60
2022-09-28T15:34:15.677Z,2.00
2022-09-28T15:36:44.373Z,3.00
2022-09-28T15:39:22.856Z,1.85
2022-09-28T15:41:55.027Z,2.28
2022-09-28T15:44:56.527Z,1.70
2022-09-28T15:47:38.911Z,2.45
2022-09-28T15:50:31.200Z,2.70
2022-09-28T15:53:12.395Z,2.40
2022-09-28T15:55:48.773Z,1.77
2022-09-28T15:58:20.529Z,1.73
2022-09-28T16:00:51.878Z,2.15
2022-09-28T16:03:31.214Z,4.60
2022-09-28T16:05:57.710Z,5.93
2022-09-28T16:09:00.336Z,5.90
2022-09-28T16:11:54.047Z,3.50
2022-09-28T16:14:40.384Z,3.55
2022-09-28T16:17:33.347Z,3.00
2022-09-28T16:20:01.872Z,3.20
2022-09-28T16:22:29.008Z,3.60
2022-09-28T16:25:00.144Z,4.45
2022-09-28T16:27:40.288Z,3.33
2022-09-28T16:30:32.676Z,3.05
2022-09-28T16:33:06.295Z,2.70
2022-09-28T16:35:52.614Z,2.40
2022-09-28T16:38:28.296Z,2.85
2022-09-28T16:41:03.107Z,3.28
2022-09-28T16:43:37.578Z,2.63
2022-09-28T16:46:22.358Z,2.20
2022-09-28T16:48:52.747Z,2.05
2022-09-28T16:51:23.552Z,2.70
2022-09-28T16:54:13.832Z,4.18
2022-09-28T16:56:40.915Z,5.28
2022-09-28T16:59:14.090Z,4.50
2022-09-28T17:01:43.950Z,4.60
2022-09-28T17:04:11.544Z,5.80
2022-09-28T17:06:39.003Z,6.47
2022-09-28T17:09:07.184Z,5.65
2022-09-28T17:11:36.937Z,5.25
2022-09-28T17:14:10.437Z,4.78
2022-09-28T17:19:33.516Z,4.45
2022-09-28T17:22:00.617Z,5.07
2022-09-28T17:24:30.277Z,5.07
2022-09-28T17:26:57.322Z,5.15
2022-09-28T17:29:23.988Z,5.35
2022-09-28T17:31:50.613Z,6.22
2022-09-28T17:34:18.122Z,5.70
2022-09-28T17:36:45.045Z,5.65
2022-09-28T17:39:15.541Z,5.85
2022-09-28T17:41:42.134Z,7.05
2022-09-28T17:44:08.741Z,4.50
2022-09-28T17:46:40.816Z,4.70
2022-09-28T17:49:10.674Z,6.40
2022-09-28T17:51:39.324Z,7.20
2022-09-28T17:54:09.850Z,6.15
2022-09-28T17:56:45.659Z,4.20
2022-09-28T17:59:18.399Z,3.55
2022-09-28T18:01:45.294Z,3.42
2022-09-28T18:04:33.306Z,2.90
2022-09-28T18:07:02.166Z,3.55
2022-09-28T18:09:28.824Z,4.60
2022-09-28T18:12:04.790Z,3.75
2022-09-28T18:14:34.035Z,3.15
2022-09-28T18:17:00.563Z,2.72
2022-09-28T18:19:31.802Z,2.70
2022-09-28T18:21:58.705Z,2.60
2022-09-28T18:24:25.261Z,3.50
2022-09-28T18:26:51.812Z,3.53
2022-09-28T18:29:18.545Z,3.70
2022-09-28T18:31:45.116Z,3.00
2022-09-28T18:34:12.472Z,2.60
2022-09-28T18:36:39.043Z,2.47
2022-09-28T18:39:08.034Z,2.30
2022-09-28T18:41:34.557Z,2.65
2022-09-28T18:44:01.281Z,2.50
2022-09-28T18:46:29.152Z,2.67
2022-09-28T18:48:56.344Z,2.40
2022-09-28T18:51:22.937Z,2.72
2022-09-28T18:53:50.098Z,7.50
2022-09-28T18:56:21.168Z,10.23
2022-09-28T18:58:51.607Z,12.95
2022-09-28T19:01:35.239Z,18.08
2022-09-28T19:04:04.717Z,13.52
2022-09-28T19:06:32.077Z,9.27
2022-09-28T19:08:58.903Z,8.10
2022-09-28T19:11:25.955Z,5.25
2022-09-28T19:13:54.132Z,4.15
2022-09-28T19:16:22.871Z,3.80
2022-09-28T19:18:51.419Z,3.08
2022-09-28T19:21:18.161Z,2.92
2022-09-28T19:23:49.255Z,3.05
2022-09-28T19:26:19.062Z,3.10
2022-09-28T19:28:45.713Z,2.90
2022-09-28T19:31:12.754Z,2.75
2022-09-28T19:33:40.473Z,3.88
2022-09-28T19:36:09.980Z,6.38
2022-09-28T19:38:37.957Z,9.70
2022-09-28T19:41:12.403Z,6.95
2022-09-28T19:43:39.098Z,3.80
2022-09-28T19:46:06.763Z,3.33
2022-09-28T19:48:35.353Z,2.58
2022-09-28T19:51:04.280Z,2.60
2022-09-28T19:53:36.871Z,3.13
2022-09-28T19:56:07.797Z,2.85
2022-09-28T19:58:36.315Z,2.70
2022-09-28T20:01:06.626Z,3.70
2022-09-28T20:03:34.230Z,3.55
2022-09-28T20:06:01.829Z,3.63
2022-09-28T20:08:30.229Z,3.20
2022-09-28T20:10:59.632Z,3.00
2022-09-28T20:13:35.195Z,2.40
2022-09-28T20:16:10.367Z,3.00
2022-09-28T20:18:50.110Z,2.60
2022-09-28T20:21:20.106Z,2.40
2022-09-28T20:23:47.453Z,2.75
2022-09-28T20:26:15.268Z,2.50
2022-09-28T20:28:41.927Z,2.65
2022-09-28T20:31:13.990Z,2.83
2022-09-28T20:33:49.909Z,2.65
2022-09-28T20:36:19.030Z,2.80
2022-09-28T20:38:53.660Z,4.13
2022-09-28T20:41:22.767Z,5.15
2022-09-28T20:43:57.610Z,4.45
2022-09-28T20:46:28.079Z,4.32
2022-09-28T20:48:55.860Z,4.57
2022-09-28T20:51:22.759Z,4.00
2022-09-28T20:53:54.465Z,3.00
2022-09-28T20:56:34.710Z,2.78
2022-09-28T20:59:01.212Z,3.00
2022-09-28T21:01:29.883Z,3.10
2022-09-28T21:04:01.845Z,2.97
2022-09-28T21:06:31.160Z,2.85
2022-09-28T21:08:58.144Z,2.97
2022-09-28T21:11:26.219Z,3.38
2022-09-28T21:13:54.633Z,3.53
2022-09-28T21:16:21.548Z,3.30
2022-09-28T21:18:48.380Z,3.25
2022-09-28T21:21:17.108Z,3.10
2022-09-28T21:23:44.927Z,3.10
2022-09-28T21:26:13.500Z,2.90
2022-09-28T21:28:40.420Z,3.15
2022-09-28T21:31:09.533Z,3.13
2022-09-28T21:33:36.189Z,2.72
2022-09-28T21:36:04.396Z,3.42
2022-09-28T21:38:31.167Z,3.95
2022-09-28T21:40:59.069Z,3.63
2022-09-28T21:43:27.602Z,3.08
2022-09-28T21:45:55.961Z,3.25
2022-09-28T21:48:23.880Z,2.97
2022-09-28T21:51:05.483Z,3.10
2022-09-28T21:53:36.719Z,3.22
2022-09-28T21:56:05.301Z,3.30
2022-09-28T21:58:33.578Z,3.40
2022-09-28T22:01:07.427Z,4.10
2022-09-28T22:03:37.898Z,4.93
2022-09-28T22:06:05.294Z,4.72
2022-09-28T22:08:32.538Z,4.90
2022-09-28T22:11:01.280Z,5.03
2022-09-28T22:13:33.251Z,4.60
2022-09-28T22:16:00.190Z,4.35
2022-09-28T22:18:28.342Z,3.85
2022-09-28T22:21:11.407Z,4.18
2022-09-28T22:23:38.722Z,3.97
2022-09-28T22:26:08.645Z,3.85
2022-09-28T22:28:35.428Z,3.75
2022-09-28T22:31:02.049Z,3.80
2022-09-28T22:33:28.661Z,3.53
2022-09-28T22:35:55.482Z,3.88
2022-09-28T22:38:24.002Z,3.55
2022-09-28T22:40:52.911Z,3.83
2022-09-28T22:43:24.479Z,4.13
2022-09-28T22:46:00.446Z,3.72
2022-09-28T22:48:27.012Z,3.53
2022-09-28T22:50:53.544Z,3.78
2022-09-28T22:53:20.079Z,3.50
2022-09-28T22:55:46.671Z,3.70
2022-09-28T22:58:13.744Z,3.80
2022-09-28T23:00:40.297Z,4.00
2022-09-28T23:03:07.331Z,4.25
2022-09-28T23:05:33.959Z,3.70
